METAR Data
IDs: Format: Raw Decoded Include TAF

Data at: 0648 UTC 07 Dec 2022

KHIO 070600Z AUTO 00000KT 4SM BR FEW010 OVC046 04/03 A3020 RMK AO2 T00390033
KHIO 070553Z AUTO 00000KT 4SM BR BKN008 OVC048 04/03 A3020 RMK AO2 SLP228 60000 T00390033 10050 20039 50004
KHIO 070453Z 00000KT 4SM BR BKN008 OVC048 04/03 A3020 RMK AO2 RAB32E42 SLP228 P0000 T00390033
KHIO 070353Z 00000KT 3SM BR BKN008 OVC048 04/03 A3019 RMK AO2 SLP226 T00390033
KHIO 070253Z 00000KT 2SM BR BKN008 OVC035 04/03 A3018 RMK AO2 SLP223 60000 T00390033 51005
KHIO 070153Z 30004KT 2SM BR OVC009 04/03 A3018 RMK AO2 RAB23E36 SLP223 P0000 T00440033
KHIO 070053Z 31003KT 2 1/2SM BR OVC008 04/04 A3017 RMK AO2 SLP220 T00440039
KHIO 062353Z 00000KT 2SM BR OVC008 05/03 A3017 RMK AO2 RAE2254 SLP219 P0000 60000 T00500033 10050 20033 55000
KHIO 062253Z 00000KT 2SM -RA BR OVC007 05/03 A3017 RMK AO2 RAE2156B33 SLP219 P0000 T00500033
KHIO 062153Z 00000KT 2SM -RA BR OVC004 04/03 A3017 RMK AO2 RAB35 SLP218 P0000 T00440033
KHIO 062053Z 00000KT 2SM BR OVC004 04/03 A3017 RMK AO2 SLP219 T00390033 50000
KHIO 061953Z 00000KT 2 1/2SM BR OVC004 04/03 A3018 RMK AO2 SLP221 T00390028
KHIO 061853Z 00000KT 5SM BR OVC006 04/02 A3018 RMK AO2 SLP223 T00390022
KHIO 061753Z 00000KT 3SM BR OVC003 03/03 A3017 RMK AO2 SLP219 T00330028 10033 20022 53011
KHIO 061653Z 00000KT 2SM BR OVC003 03/02 A3016 RMK AO2 SLP213 T00280022
KHIO 061553Z 00000KT 1SM R13R/5500VP6000FT BR OVC002 03/02 A3014 RMK AO2 SLP209 T00280022
KHIO 061453Z 00000KT 1SM R13R/P6000FT BR OVC002 03/02 A3014 RMK AO2 SLP207 T00280022 53009
KHIO 061353Z 00000KT 2 1/2SM BR OVC004 03/02 A3012 RMK AO2 SLP201 T00280022
KHIO 061253Z AUTO 00000KT 4SM BR OVC004 03/02 A3012 RMK AO2 SLP201 T00280022
KHIO 061153Z AUTO 00000KT 4SM BR OVC004 03/02 A3011 RMK AO2 SLP198 60000 T00280022 10028 20022 50002
KHIO 061053Z AUTO 15003KT 4SM BR OVC004 03/02 A3012 RMK AO2 SLP200 T00280022
KHIO 060953Z AUTO 00000KT 5SM BR BKN006 OVC042 03/02 A3011 RMK AO2 SLP196 T00280022
KHIO 060948Z AUTO 00000KT 5SM BR BKN007 OVC042 03/02 A3010 RMK AO2
KHIO 060853Z AUTO 15003KT 4SM BR SCT003 OVC047 03/02 A3010 RMK AO2 SLP194 60000 T00280022 51002
KHIO 060850Z AUTO 15003KT 4SM BR FEW003 OVC047 03/02 A3010 RMK AO2
KHIO 060753Z AUTO 00000KT 5SM BR OVC045 03/02 A3009 RMK AO2 SLP193 T00280022 400721006
KHIO 060706Z AUTO 00000KT 6SM BR SCT013 OVC045 03/02 A3009 RMK AO2 T00280017
KHIO 060653Z AUTO 00000KT 6SM BR BKN013 OVC047 03/02 A3009 RMK AO2 RAE04 SLP192 P0000 T00280022
KHIO 060610Z AUTO 00000KT 5SM BR BKN011 OVC040 03/02 A3008 RMK AO2 RAE04 P0000 T00280022
KHIO 060553Z AUTO 00000KT 5SM -RA BR FEW013 BKN036 OVC043 03/02 A3008 RMK AO2 RAB11 SLP187 P0000 60000 T00280022 10039 20011 51014
KHIO 060504Z 00000KT 7SM BKN013 BKN035 OVC046 03/02 A3007 RMK AO2 T00280022
KHIO 060453Z 00000KT 8SM SCT014 SCT035 OVC046 03/02 A3007 RMK AO2 SLP184 T00280017
KHIO 060353Z 14004KT 9SM OVC047 03/02 A3005 RMK AO2 SLP178 T00280017
KHIO 060253Z 14006KT 10SM SCT020 03/02 A3004 RMK AO2 SLP174 T00280017 51010
KHIO 060225Z 17004KT 10SM SCT020 02/02 A3003 RMK AO2 T00220017
KHIO 060216Z 13004KT 10SM BKN019 BKN045 03/02 A3003 RMK AO2 T00280017
KHIO 060153Z 16003KT 10SM CLR 03/01 A3003 RMK AO2 SLP171 T00280011
KHIO 060053Z 00000KT 10SM BKN042 03/02 A3002 RMK AO2 SLP166 T00330017
KHIO 052353Z 00000KT 10SM CLR 06/02 A3001 RMK AO2 SLP163 T00610022 10072 20022 53002
KHIO 052253Z 21003KT 10SM CLR 07/02 A3000 RMK AO2 SLP159 T00670022
KHIO 052153Z 00000KT 10SM CLR 07/02 A2999 RMK AO2 SLP158 T00670022
KHIO 052053Z 22003KT 10SM SCT013 06/03 A3000 RMK AO2 SLP161 T00610028 58009
KHIO 051953Z 19003KT 10SM FEW013 SCT042 05/02 A3001 RMK AO2 SLP163 T00500022
KHIO 051927Z 16004KT 10SM SCT013 BKN034 04/02 A3002 RMK AO2 T00440022
KHIO 051853Z 00000KT 6SM BR SCT003 BKN034 04/02 A3003 RMK AO2 SLP172 T00390017